Terminal Aerodrome Forecast
Issued by NWS

Home | Current Version | Previous Version | Text Only | Print | Product List | Glossary On
Versions: 1 2 3 4 5 6 7 8 9 10 11 12 13 14 15
000
FTUS41 KBTV 301720
TAFMPV
TAF
KMPV 301720Z 3018/3118 19007G14KT 6SM -SHRA SCT045 OVC100
      TEMPO 3018/3020 VRB15G25KT 3SM TSRA BR BKN020 OVC045CB
     FM302100 24007KT P6SM SCT060 SCT250
     FM310000 24005KT P6SM FEW060
     FM310700 25004KT 2SM BR SCT001
     FM311200 29009G17KT P6SM SCT045=

USA.gov is the U.S. government's official web portal to all federal, state and local government web resources and services.